createdAt,value
2023-05-01T00:01:50.257Z,608.50
2023-05-01T00:04:19.292Z,630.53
2023-05-01T00:06:47.966Z,642.90
2023-05-01T00:09:16.421Z,595.60
2023-05-01T00:11:45.947Z,618.95
2023-05-01T00:14:14.271Z,682.65
2023-05-01T00:16:42.709Z,599.60
2023-05-01T00:19:12.946Z,641.45
2023-05-01T00:21:41.535Z,615.25
2023-05-01T00:24:09.909Z,641.72
2023-05-01T00:26:38.283Z,639.20
2023-05-01T00:29:07.294Z,646.35
2023-05-01T00:31:36.070Z,543.83
2023-05-01T00:34:05.040Z,633.83
2023-05-01T00:36:34.798Z,634.70
2023-05-01T00:39:03.141Z,624.92
2023-05-01T00:41:31.508Z,636.50
2023-05-01T00:44:00.072Z,638.15
2023-05-01T00:46:29.948Z,613.53
2023-05-01T00:48:58.957Z,620.33
2023-05-01T00:51:28.297Z,654.63
2023-05-01T00:53:59.603Z,636.90
2023-05-01T00:56:27.994Z,605.47
2023-05-01T00:58:56.337Z,573.75
2023-05-01T01:01:24.928Z,587.20
2023-05-01T01:03:54.428Z,668.30
2023-05-01T01:06:33.962Z,592.13
2023-05-01T01:09:10.812Z,572.85
2023-05-01T01:11:44.505Z,665.75
2023-05-01T01:14:16.614Z,634.03
2023-05-01T01:16:49.617Z,611.58
2023-05-01T01:19:36.877Z,610.22
2023-05-01T01:22:11.841Z,657.97
2023-05-01T01:25:08.451Z,608.45
2023-05-01T01:28:11.158Z,591.80
2023-05-01T01:31:10.300Z,648.75
2023-05-01T01:34:09.169Z,640.83
2023-05-01T01:36:42.718Z,619.60
2023-05-01T01:39:16.129Z,622.93
2023-05-01T01:41:46.610Z,623.00
2023-05-01T01:44:21.149Z,633.20
2023-05-01T01:49:23.102Z,540.30
2023-05-01T01:51:52.073Z,614.40
2023-05-01T01:54:26.232Z,610.40
2023-05-01T01:56:55.416Z,586.33
2023-05-01T01:59:25.072Z,606.08
2023-05-01T02:01:55.346Z,659.15
2023-05-01T02:04:25.716Z,583.22
2023-05-01T02:06:54.329Z,696.88
2023-05-01T02:09:23.862Z,592.20
2023-05-01T02:11:52.790Z,624.33
2023-05-01T02:14:22.096Z,643.78
2023-05-01T02:16:50.837Z,675.83
2023-05-01T02:19:21.208Z,596.88
2023-05-01T02:21:51.690Z,649.95
2023-05-01T02:24:22.662Z,652.95
2023-05-01T02:26:55.584Z,678.00
2023-05-01T02:29:25.517Z,568.17
2023-05-01T02:31:53.968Z,636.50
2023-05-01T02:34:22.508Z,623.33
2023-05-01T02:36:52.190Z,602.70
2023-05-01T02:39:21.090Z,579.78
2023-05-01T02:41:50.689Z,614.00
2023-05-01T02:44:19.701Z,682.67
2023-05-01T02:46:49.670Z,548.78
2023-05-01T02:49:19.539Z,536.15
2023-05-01T02:51:48.357Z,640.50
2023-05-01T02:54:19.174Z,539.45
2023-05-01T02:56:47.561Z,608.47
2023-05-01T02:59:16.454Z,532.22
2023-05-01T03:01:44.948Z,574.20
2023-05-01T03:04:13.509Z,518.47
2023-05-01T03:06:42.083Z,500.13
2023-05-01T03:09:11.190Z,629.42
2023-05-01T03:11:40.856Z,573.40
2023-05-01T03:14:11.164Z,630.97
2023-05-01T03:16:39.590Z,615.05
2023-05-01T03:19:08.077Z,531.95
2023-05-01T03:21:37.015Z,690.58
2023-05-01T03:24:06.207Z,685.58
2023-05-01T03:26:34.667Z,602.75
2023-05-01T03:29:04.540Z,595.65
2023-05-01T03:31:32.988Z,527.50
2023-05-01T03:34:01.402Z,561.20
2023-05-01T03:36:29.871Z,605.92
2023-05-01T03:38:58.258Z,479.90
2023-05-01T03:41:26.723Z,453.63
2023-05-01T03:43:55.087Z,488.15
2023-05-01T03:46:24.840Z,436.33
2023-05-01T03:48:53.200Z,475.63
2023-05-01T03:51:21.672Z,452.20
2023-05-01T03:53:50.042Z,455.92
2023-05-01T03:56:18.380Z,467.20
2023-05-01T03:58:46.888Z,482.90
2023-05-01T04:01:15.346Z,518.20
2023-05-01T04:03:46.036Z,511.50
2023-05-01T04:06:16.441Z,473.45
2023-05-01T04:08:44.850Z,468.88
2023-05-01T04:11:13.150Z,487.50
2023-05-01T04:13:41.514Z,526.22
2023-05-01T04:16:09.979Z,511.83
2023-05-01T04:18:38.403Z,467.10
2023-05-01T04:21:08.605Z,581.83
2023-05-01T04:23:36.939Z,496.55
2023-05-01T04:26:05.311Z,484.10
2023-05-01T04:28:33.654Z,530.28
2023-05-01T04:31:02.420Z,643.25
2023-05-01T04:33:30.827Z,654.38
2023-05-01T04:35:59.180Z,536.90
2023-05-01T04:38:31.127Z,493.77
2023-05-01T04:40:59.770Z,615.03
2023-05-01T04:43:28.141Z,486.70
2023-05-01T04:45:56.502Z,552.67
2023-05-01T04:48:25.015Z,483.00
2023-05-01T04:50:53.365Z,525.10
2023-05-01T04:53:21.691Z,480.30
2023-05-01T04:55:51.474Z,538.65
2023-05-01T04:58:19.782Z,537.80
2023-05-01T05:00:48.153Z,535.60
2023-05-01T05:03:18.908Z,560.38
2023-05-01T05:05:47.602Z,541.03
2023-05-01T05:08:15.978Z,583.10
2023-05-01T05:10:44.361Z,603.65
2023-05-01T05:13:14.047Z,621.50
2023-05-01T05:15:42.419Z,685.88
2023-05-01T05:18:11.067Z,694.17
2023-05-01T05:20:42.776Z,686.13
2023-05-01T05:23:11.603Z,744.50
2023-05-01T05:25:39.977Z,679.15
2023-05-01T05:28:08.457Z,665.70
2023-05-01T05:30:38.302Z,646.58
2023-05-01T05:33:09.753Z,635.13
2023-05-01T05:35:38.100Z,678.20
2023-05-01T05:38:06.725Z,656.53
2023-05-01T05:40:35.071Z,660.70
2023-05-01T05:43:03.461Z,675.60
2023-05-01T05:45:34.306Z,654.65
2023-05-01T05:48:04.157Z,653.53
2023-05-01T05:50:32.622Z,652.20
2023-05-01T05:53:00.985Z,670.47
2023-05-01T05:55:29.383Z,680.33
2023-05-01T05:57:57.995Z,663.88
2023-05-01T06:00:26.357Z,676.38
2023-05-01T06:02:54.822Z,676.25
2023-05-01T06:05:24.655Z,658.22
2023-05-01T06:07:53.046Z,661.83
2023-05-01T06:10:21.454Z,634.15
2023-05-01T06:12:58.290Z,699.80
2023-05-01T06:15:37.601Z,665.90
2023-05-01T06:18:06.550Z,731.42
2023-05-01T06:20:36.548Z,619.38
2023-05-01T06:23:04.876Z,685.65
2023-05-01T06:25:33.170Z,661.38
2023-05-01T06:28:01.621Z,583.33
2023-05-01T06:30:29.922Z,716.55
2023-05-01T06:32:58.324Z,564.58
2023-05-01T06:35:27.205Z,600.47
2023-05-01T06:37:56.950Z,551.72
2023-05-01T06:40:25.444Z,557.95
2023-05-01T06:42:53.848Z,594.90
2023-05-01T06:45:22.213Z,575.83
2023-05-01T06:47:50.652Z,562.70
2023-05-01T06:50:19.113Z,567.45
2023-05-01T06:52:47.474Z,607.90
2023-05-01T06:55:17.553Z,586.00
2023-05-01T06:57:45.875Z,555.63
2023-05-01T07:00:17.472Z,663.67
2023-05-01T07:02:46.633Z,580.85
2023-05-01T07:05:15.121Z,560.97
2023-05-01T07:07:50.524Z,569.30
2023-05-01T07:10:28.016Z,630.90
2023-05-01T07:12:56.375Z,586.17
2023-05-01T07:15:24.987Z,626.70
2023-05-01T07:17:53.564Z,642.40
2023-05-01T07:20:22.094Z,715.33
2023-05-01T07:22:50.626Z,648.83
2023-05-01T07:25:20.272Z,656.28
2023-05-01T07:27:50.014Z,671.70
2023-05-01T07:30:18.399Z,636.30
2023-05-01T07:32:47.063Z,658.80
2023-05-01T07:35:15.505Z,645.35
2023-05-01T07:37:43.866Z,651.33
2023-05-01T07:40:13.079Z,663.50
2023-05-01T07:42:41.605Z,671.13
2023-05-01T07:45:12.472Z,686.25
2023-05-01T07:47:40.819Z,718.20
2023-05-01T07:50:12.212Z,714.97
2023-05-01T07:52:40.795Z,692.15
2023-05-01T07:55:10.527Z,695.88
2023-05-01T07:57:39.151Z,671.05
2023-05-01T08:00:10.537Z,747.17
2023-05-01T08:02:38.983Z,690.85
2023-05-01T08:05:08.154Z,683.15
2023-05-01T08:07:36.665Z,714.80
2023-05-01T08:10:05.744Z,700.70
2023-05-01T08:12:34.168Z,693.95
2023-05-01T08:15:02.647Z,673.00
2023-05-01T08:17:32.425Z,683.40
2023-05-01T08:20:02.020Z,668.03
2023-05-01T08:22:30.457Z,700.00
2023-05-01T08:24:58.821Z,711.53
2023-05-01T08:27:27.791Z,723.30
2023-05-01T08:29:56.353Z,752.63
2023-05-01T08:32:25.004Z,736.97
2023-05-01T08:34:54.781Z,709.78
2023-05-01T08:37:23.161Z,654.45
2023-05-01T08:39:51.527Z,686.67
2023-05-01T08:42:21.182Z,692.28
2023-05-01T08:44:51.061Z,765.50
2023-05-01T08:47:20.226Z,657.30
2023-05-01T08:49:50.818Z,564.30
2023-05-01T08:52:22.367Z,629.30
2023-05-01T08:54:51.203Z,605.95
2023-05-01T08:57:20.002Z,605.92
2023-05-01T08:59:50.769Z,634.63
2023-05-01T09:02:20.009Z,657.28
2023-05-01T09:04:49.572Z,566.60
2023-05-01T09:07:19.490Z,624.55
2023-05-01T09:09:47.983Z,568.08
2023-05-01T09:12:24.220Z,572.53
2023-05-01T09:14:53.350Z,544.00
2023-05-01T09:17:23.019Z,561.25
2023-05-01T09:19:51.954Z,630.42
2023-05-01T09:22:22.267Z,561.72
2023-05-01T09:24:50.602Z,536.20
2023-05-01T09:27:19.185Z,620.28
2023-05-01T09:29:48.448Z,519.95
2023-05-01T09:32:20.515Z,540.30
2023-05-01T09:34:49.529Z,492.42
2023-05-01T09:37:28.733Z,532.67
2023-05-01T09:40:08.409Z,505.67
2023-05-01T09:42:39.013Z,570.17
2023-05-01T09:45:13.868Z,464.30
2023-05-01T09:47:43.950Z,540.95
2023-05-01T09:50:14.157Z,489.35
2023-05-01T09:52:52.405Z,522.65
2023-05-01T09:55:22.229Z,501.05
2023-05-01T09:57:51.590Z,474.80
2023-05-01T10:00:21.980Z,522.25
2023-05-01T10:02:51.475Z,485.10
2023-05-01T10:05:20.178Z,470.90
2023-05-01T10:08:00.925Z,483.60
2023-05-01T10:10:29.391Z,494.13
2023-05-01T10:13:09.069Z,509.42
2023-05-01T10:18:34.674Z,489.92
2023-05-01T10:21:04.167Z,455.40
2023-05-01T10:23:34.599Z,514.22
2023-05-01T10:26:05.093Z,507.25
2023-05-01T10:28:34.320Z,579.72
2023-05-01T10:31:03.524Z,530.90
2023-05-01T10:33:32.026Z,506.73
2023-05-01T10:36:02.073Z,512.22
2023-05-01T10:38:35.856Z,523.55
2023-05-01T10:41:06.212Z,473.77
2023-05-01T10:43:34.596Z,500.83
2023-05-01T10:46:28.128Z,494.85
2023-05-01T10:48:59.564Z,508.05
2023-05-01T10:51:28.637Z,561.78
2023-05-01T10:54:26.649Z,459.08
2023-05-01T10:56:56.010Z,498.05
2023-05-01T10:59:24.552Z,527.78
2023-05-01T11:01:53.778Z,509.63
2023-05-01T11:04:51.265Z,560.28
2023-05-01T11:07:21.168Z,597.83
2023-05-01T11:09:54.995Z,596.67
2023-05-01T11:12:55.030Z,552.25
2023-05-01T11:15:33.651Z,595.63
2023-05-01T11:18:07.943Z,559.78
2023-05-01T11:20:51.887Z,632.72
2023-05-01T11:23:23.527Z,721.58
2023-05-01T11:26:04.590Z,670.92
2023-05-01T11:28:33.842Z,652.67
2023-05-01T11:31:05.530Z,655.53
2023-05-01T11:33:35.666Z,705.28
2023-05-01T11:36:05.016Z,705.63
2023-05-01T11:38:33.552Z,730.83
2023-05-01T11:41:04.993Z,711.67
2023-05-01T11:43:33.433Z,724.55
2023-05-01T11:46:07.570Z,681.45
2023-05-01T11:48:36.113Z,681.53
2023-05-01T11:51:14.257Z,835.47
2023-05-01T11:53:42.826Z,784.35
2023-05-01T11:56:26.979Z,751.88
2023-05-01T11:58:56.110Z,738.28
2023-05-01T12:01:34.178Z,752.13
2023-05-01T12:04:03.156Z,752.88
2023-05-01T12:06:40.630Z,745.70
2023-05-01T12:09:09.616Z,758.22
2023-05-01T12:11:40.052Z,713.88
2023-05-01T12:14:08.534Z,741.75
2023-05-01T12:16:37.009Z,737.60
2023-05-01T12:19:05.684Z,782.00
2023-05-01T12:21:34.650Z,686.45
2023-05-01T12:24:10.561Z,729.70
2023-05-01T12:26:44.864Z,750.78
2023-05-01T12:31:49.204Z,703.03
2023-05-01T12:34:17.774Z,681.20
2023-05-01T12:36:55.148Z,725.95
2023-05-01T12:39:24.601Z,805.33
2023-05-01T12:41:56.394Z,754.83
2023-05-01T12:44:26.483Z,758.65
2023-05-01T12:46:56.049Z,731.10
2023-05-01T12:49:25.387Z,749.50
2023-05-01T12:51:54.850Z,756.25
2023-05-01T12:54:24.183Z,821.70
2023-05-01T12:56:54.223Z,763.42
2023-05-01T12:59:23.910Z,807.90
2023-05-01T13:02:00.388Z,847.13
2023-05-01T13:04:29.358Z,741.10
2023-05-01T13:06:58.779Z,709.65
2023-05-01T13:09:28.422Z,692.83
2023-05-01T13:12:02.457Z,680.17
2023-05-01T13:14:31.966Z,686.65
2023-05-01T13:17:09.342Z,700.55
2023-05-01T13:19:38.953Z,684.30
2023-05-01T13:22:07.861Z,741.33
2023-05-01T13:24:42.379Z,740.80
2023-05-01T13:27:12.912Z,787.33
2023-05-01T13:29:42.680Z,766.25
2023-05-01T13:32:15.764Z,805.90
2023-05-01T13:34:45.141Z,685.30
2023-05-01T13:37:14.458Z,738.88
2023-05-01T13:39:44.050Z,670.63
2023-05-01T13:42:18.971Z,675.25
2023-05-01T13:44:53.114Z,640.75
2023-05-01T13:47:23.335Z,652.35
2023-05-01T13:49:51.771Z,664.30
2023-05-01T13:52:21.003Z,728.67
2023-05-01T13:54:50.157Z,721.17
2023-05-01T13:57:23.362Z,729.33
2023-05-01T13:59:51.697Z,683.70
2023-05-01T14:02:21.587Z,742.85
2023-05-01T14:04:50.437Z,717.50
2023-05-01T14:07:20.132Z,763.63
2023-05-01T14:09:54.009Z,730.17
2023-05-01T14:12:29.414Z,683.80
2023-05-01T14:14:58.320Z,734.17
2023-05-01T14:17:29.151Z,739.60
2023-05-01T14:19:57.648Z,710.42
2023-05-01T14:22:26.873Z,758.60
2023-05-01T14:24:58.038Z,653.70
2023-05-01T14:41:03.188Z,708.08
2023-05-01T14:43:32.520Z,725.42
2023-05-01T14:46:01.516Z,779.17
2023-05-01T14:48:42.601Z,747.72
2023-05-01T14:51:13.207Z,737.03
2023-05-01T14:53:43.856Z,780.92
2023-05-01T14:56:14.270Z,732.17
2023-05-01T14:58:43.232Z,722.00
2023-05-01T15:01:12.243Z,743.80
2023-05-01T15:03:43.849Z,734.53
2023-05-01T15:06:12.780Z,693.38
2023-05-01T15:08:41.563Z,720.90
2023-05-01T15:11:10.139Z,759.35
2023-05-01T15:13:41.472Z,731.13
2023-05-01T15:16:10.958Z,703.70
2023-05-01T15:18:39.440Z,729.92
2023-05-01T15:21:07.997Z,707.85
2023-05-01T15:23:37.142Z,715.90
2023-05-01T15:26:05.664Z,702.30
2023-05-01T15:28:34.267Z,712.75
2023-05-01T15:31:04.304Z,709.25
2023-05-01T15:33:33.200Z,730.63
2023-05-01T15:36:01.671Z,691.40
2023-05-01T15:38:30.180Z,700.40
2023-05-01T15:40:58.712Z,748.50
2023-05-01T15:43:27.269Z,706.38
2023-05-01T15:45:58.968Z,730.47
2023-05-01T15:48:29.270Z,744.08
2023-05-01T15:50:58.083Z,756.58
2023-05-01T15:53:26.773Z,708.05
2023-05-01T15:55:58.530Z,711.85
2023-05-01T15:58:27.108Z,770.45
2023-05-01T16:00:55.563Z,799.47
2023-05-01T16:03:25.110Z,742.55
2023-05-01T16:05:56.080Z,749.40
2023-05-01T16:08:24.722Z,739.08
2023-05-01T16:10:54.193Z,743.80
2023-05-01T16:13:23.002Z,710.13
2023-05-01T16:15:51.763Z,721.40
2023-05-01T16:18:21.714Z,776.38
2023-05-01T16:20:53.436Z,690.17
2023-05-01T16:23:23.830Z,691.97
2023-05-01T16:25:52.376Z,708.28
2023-05-01T16:28:25.093Z,764.10
2023-05-01T16:30:53.488Z,697.70
2023-05-01T16:33:23.418Z,712.83
2023-05-01T16:35:52.159Z,697.05
2023-05-01T16:38:57.474Z,718.10
2023-05-01T16:41:27.220Z,715.20
2023-05-01T16:43:56.592Z,694.65
2023-05-01T16:46:25.083Z,687.33
2023-05-01T16:48:53.771Z,687.22
2023-05-01T16:51:22.089Z,652.25
2023-05-01T16:53:50.454Z,715.67
2023-05-01T16:56:18.807Z,658.30
2023-05-01T16:58:48.514Z,641.92
2023-05-01T17:01:17.196Z,741.47
2023-05-01T17:03:45.603Z,719.90
2023-05-01T17:06:14.000Z,689.30
2023-05-01T17:08:42.311Z,690.72
2023-05-01T17:11:10.901Z,675.97
2023-05-01T17:13:39.283Z,701.55
2023-05-01T17:16:09.290Z,675.15
2023-05-01T17:18:37.892Z,727.17
2023-05-01T17:21:07.023Z,697.40
2023-05-01T17:23:35.386Z,723.38
2023-05-01T17:26:04.181Z,690.42
2023-05-01T17:28:32.773Z,705.67
2023-05-01T17:31:01.168Z,691.33
2023-05-01T17:33:31.818Z,711.72
2023-05-01T17:36:00.773Z,761.55
2023-05-01T17:38:29.236Z,726.83
2023-05-01T17:40:57.687Z,853.20
2023-05-01T17:43:26.730Z,706.60
2023-05-01T17:45:55.350Z,726.97
2023-05-01T17:48:23.933Z,716.28
2023-05-01T17:50:55.769Z,706.40
2023-05-01T17:53:24.198Z,719.88
2023-05-01T17:55:52.679Z,729.67
2023-05-01T17:58:21.581Z,718.70
2023-05-01T18:00:51.807Z,709.78
2023-05-01T18:03:20.379Z,727.10
2023-05-01T18:05:49.102Z,720.08
2023-05-01T18:08:19.002Z,728.85
2023-05-01T18:10:47.596Z,709.20
2023-05-01T18:13:16.775Z,713.13
2023-05-01T18:15:45.197Z,712.42
2023-05-01T18:18:14.122Z,710.15
2023-05-01T18:20:42.825Z,708.97
2023-05-01T18:23:11.501Z,767.10
2023-05-01T18:25:41.302Z,732.70
2023-05-01T18:28:10.135Z,713.72
2023-05-01T18:30:38.656Z,691.58
2023-05-01T18:33:07.212Z,706.95
2023-05-01T18:35:36.213Z,705.33
2023-05-01T18:38:04.638Z,715.08
2023-05-01T18:40:33.121Z,684.03
2023-05-01T18:43:03.076Z,702.03
2023-05-01T18:45:31.877Z,698.25
2023-05-01T18:48:01.120Z,717.60
2023-05-01T18:50:29.621Z,765.70
2023-05-01T18:53:37.646Z,692.13
2023-05-01T18:56:09.432Z,722.80
2023-05-01T18:58:39.948Z,721.78
2023-05-01T19:01:08.811Z,705.00
2023-05-01T19:03:37.239Z,697.55
2023-05-01T19:06:05.851Z,723.78
2023-05-01T19:08:34.346Z,705.03
2023-05-01T19:11:02.869Z,763.83
2023-05-01T19:13:31.483Z,709.42
2023-05-01T19:16:11.686Z,708.67
2023-05-01T19:18:40.438Z,689.05
2023-05-01T19:21:09.119Z,709.58
2023-05-01T19:26:26.550Z,706.70
2023-05-01T19:28:55.108Z,694.70
2023-05-01T19:31:26.990Z,726.00
2023-05-01T20:27:49.369Z,706.22
2023-05-01T20:30:19.353Z,701.03
2023-05-01T20:32:48.767Z,700.60
2023-05-01T20:35:17.490Z,722.78
2023-05-01T20:37:46.023Z,697.85
2023-05-01T20:40:16.447Z,704.22
2023-05-01T20:42:44.924Z,704.30
2023-05-01T20:45:13.303Z,697.80
2023-05-01T20:47:43.078Z,716.72
2023-05-01T20:50:12.004Z,699.60
2023-05-01T20:52:40.439Z,708.90
2023-05-01T20:55:09.825Z,694.50
2023-05-01T20:57:38.277Z,712.88
2023-05-01T21:00:07.935Z,686.28
2023-05-01T21:02:38.859Z,697.42
2023-05-01T21:05:10.251Z,696.90
2023-05-01T21:07:38.853Z,705.03
2023-05-01T21:10:09.084Z,702.00
2023-05-01T21:12:37.482Z,695.97
2023-05-01T21:15:06.842Z,692.88
2023-05-01T21:17:36.921Z,706.45
2023-05-01T21:20:08.810Z,703.08
2023-05-01T21:22:37.207Z,678.03
2023-05-01T21:25:06.689Z,696.88
2023-05-01T21:27:35.023Z,708.72
2023-05-01T21:30:05.260Z,716.80
2023-05-01T21:32:38.152Z,703.45
2023-05-01T21:35:10.005Z,703.95
2023-05-01T21:37:38.488Z,695.17
2023-05-01T21:40:08.392Z,698.38
2023-05-01T21:42:38.464Z,680.78
2023-05-01T21:45:08.306Z,695.20
2023-05-01T21:47:39.538Z,687.95
2023-05-01T21:50:12.306Z,698.83
2023-05-01T21:52:41.014Z,678.35
2023-05-01T21:55:11.107Z,697.83
2023-05-01T21:57:40.254Z,698.83
2023-05-01T22:00:10.193Z,679.97
2023-05-01T22:02:42.478Z,672.67
2023-05-01T22:05:14.026Z,679.83
2023-05-01T22:07:43.724Z,685.28
2023-05-01T22:10:13.653Z,691.13
2023-05-01T22:12:42.237Z,695.97
2023-05-01T22:18:23.690Z,680.33
2023-05-01T22:21:08.633Z,672.45
2023-05-01T22:35:47.317Z,683.60
2023-05-01T22:38:22.966Z,669.33
